Terminal Aerodrome Forecast
Issued by NWS

Home | Current Version | Previous Version | Text Only | Print | Product List | Glossary On
Versions: 1 2 3 4 5 6 7 8 9 10 11 12 13 14 15 16 17
000
FTUS43 KDLH 241300 AAB
TAFHYR
TAF AMD
KHYR 241317Z 2413/2512 27010KT 5SM -SN BLSN SCT020 OVC040
      TEMPO 2413/2416 30010G20KT 3/4SM -SN BKN020
     FM241600 31010G25KT P6SM VCSH SCT020 BKN040
     FM250000 32012KT P6SM SCT040
     FM250600 32007KT P6SM BKN120=

USA.gov is the U.S. government's official web portal to all federal, state and local government web resources and services.